Terminal Aerodrome Forecast
Issued by NWS Grand Rapids, MI

Home | Current Version | Previous Version | Text Only | Print | Product List | Glossary On
Versions: 1 2 3 4 5 6 7 8 9 10 11 12 13 14 15 16 17 18 19 20
880
FTUS43 KGRR 292340
TAFGRR
TAF
KGRR 292340Z 3000/3024 08012G17KT P6SM OVC100
     FM300600 06014G21KT 6SM -RA BR OVC045
     FM301000 08016G23KT 4SM RA BR OVC015
     FM301300 08018G26KT 2SM RA BR OVC005
     FM301700 08016G25KT 3SM -RA BR OVC003
     FM302300 08016G23KT 3SM -RA BR VCTS OVC005CB=

USA.gov is the U.S. government's official web portal to all federal, state and local government web resources and services.